Oosterdam — PBKH — position and weather

sailwx.info

Track history (hours):
 
Tides and Currents Weather Stations Pressure Air Temp Water Temp Dewpoint Dewpoint Depression Visibility Wind Speed Wind Dir Waves Ship Positions

Oosterdam

Operator: Holland America Line

Last reported at 2019-Jul-15 18:50 UTC. Time now 2019-Jul-16 02:02 UTC.
Position N 51°23' W 130°21'.

MMSI: 245417000.

Date/timePositionNaut miles runAvg speedWind from/ knotsBaromVisibWave heightAir tempDewpointWater temp
2019-Jul-15 18:50N 51°23' W 130°21'721.4
2019-Jul-15 18:30N 51°18' W 130°12'1021.2
2019-Jul-15 18:00N 51°11' W 129°60'6707.5
2019-Jul-15 18:00N 51°06' W 129°54'5 9.4 070 / 121017.010.8 15.214.218.9
2019-Jul-15 17:30N 51°04' W 129°48'1121.5
2019-Jul-15 17:00N 50°57' W 129°35'1121.5
2019-Jul-15 16:30N 50°49' W 129°22'1121.1
2019-Jul-15 16:00N 50°42' W 129°10'1019.5
2019-Jul-15 15:30N 50°36' W 128°59'1121.1
2019-Jul-15 15:00N 50°28' W 128°47'1121.5
2019-Jul-15 14:30N 50°21' W 128°34'1121.7
2019-Jul-15 13:59N 50°13' W 128°21'1121.8
2019-Jul-15 13:30N 50°06' W 128°09'5822.9
2019-Jul-15 11:00N 49°30' W 127°00'1818.2 320 / 101017.010.8 16.015.218.0
2019-Jul-15 10:00N 49°18' W 126°40'2292.3
2019-Jul-15 10:00N 49°18' W 126°36'917.7 320 / 101017.010.8 16.015.218.0
2019-Jul-15 09:30N 49°12' W 126°27'1121.3
2019-Jul-15 09:01N 49°06' W 126°13'442624.0
2019-Jul-15 09:00N 49°00' W 125°06'3572.8 320 / 121017.010.8 16.015.218.0
2019-Jul-15 08:31N 49°00' W 125°60'1121.0
2019-Jul-15 08:01N 48°54' W 125°47'7406.3
2019-Jul-15 08:00N 48°48' W 125°42'611.8 320 / 121017.010.8 16.015.218.0
2019-Jul-15 07:31N 48°48' W 125°33'1121.5
2019-Jul-15 07:01N 48°43' W 125°20'1121.5
2019-Jul-15 06:30N 48°37' W 125°05'1121.0
2019-Jul-15 06:01N 48°33' W 124°51'1121.5
2019-Jul-15 05:31N 48°29' W 124°36'1121.5
2019-Jul-15 05:00N 48°24' W 124°21'1121.5
2019-Jul-15 04:30N 48°20' W 124°06'1121.2
2019-Jul-15 04:00N 48°17' W 123°51'1121.6
2019-Jul-15 03:30N 48°15' W 123°35'918.0
2019-Jul-15 03:00N 48°11' W 123°23'5 9.0
2019-Jul-15 02:30N 48°10' W 123°17'1020.1
2019-Jul-15 02:00N 48°12' W 123°02'1020.5
2019-Jul-15 01:30N 48°11' W 122°47'1019.4
2019-Jul-15 01:00N 48°03' W 122°38'1020.1
2019-Jul-15 00:31N 47°55' W 122°30'1121.1
2019-Jul-15 00:01N 47°45' W 122°26'815.2
2019-Jul-14 23:30N 47°38' W 122°25'1 2.6
2019-Jul-14 23:00N 47°38' W 122°23'0 0.0
2019-Jul-14 22:30N 47°38' W 122°23'0 0.0
2019-Jul-14 22:00N 47°38' W 122°23'0 0.0
2019-Jul-14 21:30N 47°38' W 122°23'0 0.0
2019-Jul-14 21:00N 47°38' W 122°23'0 0.0
2019-Jul-14 20:30N 47°38' W 122°23'0 0.0
2019-Jul-14 20:00N 47°38' W 122°23'0 0.0
2019-Jul-14 19:30N 47°38' W 122°23'0 0.0
2019-Jul-14 18:57N 47°38' W 122°23'0 0.0
2019-Jul-14 18:30N 47°38' W 122°23'0 0.0
2019-Jul-14 18:00N 47°38' W 122°23'0 0.0
2019-Jul-14 17:30N 47°38' W 122°23'0 0.0
2019-Jul-14 17:00N 47°38' W 122°23'0 0.0
2019-Jul-14 16:30N 47°38' W 122°23'0 0.0
2019-Jul-14 16:00N 47°38' W 122°23'0 0.0
2019-Jul-14 15:30N 47°38' W 122°23'0 0.0
2019-Jul-14 14:57N 47°38' W 122°23'0 0.0
2019-Jul-14 14:30N 47°38' W 122°23'0 0.0
2019-Jul-14 14:00N 47°38' W 122°23'0 0.0
2019-Jul-14 13:27N 47°38' W 122°23'0 0.2
2019-Jul-14 13:00N 47°38' W 122°23'3 5.8
2019-Jul-14 12:30N 47°38' W 122°27'611.7
2019-Jul-14 12:00N 47°44' W 122°27'612.1
2019-Jul-14 11:30N 47°50' W 122°28'612.1
2019-Jul-14 11:00N 47°56' W 122°31'2144.3
2019-Jul-14 11:00N 47°54' W 122°30'816.3 290 / 31016.010.8 14.713.416.7
2019-Jul-14 10:29N 48°00' W 122°38'611.6
2019-Jul-14 10:00N 48°06' W 122°36'527.9 270 / 81015.010.8 14.513.217.3
2019-Jul-14 09:50N 48°08' W 122°42'412.5
2019-Jul-14 09:29N 48°10' W 122°47'613.1
2019-Jul-14 09:00N 48°11' W 122°57'6704.1
2019-Jul-14 09:00N 48°06' W 122°54'1122.9 250 / 151015.010.8 13.111.816.7
2019-Jul-14 08:30N 48°12' W 123°08'815.6
2019-Jul-14 08:00N 48°10' W 123°20'712.0
2019-Jul-14 07:28N 48°13' W 123°29'715.0
2019-Jul-14 07:01N 48°19' W 123°27'611.1
2019-Jul-14 06:30N 48°25' W 123°24'1 1.2
2019-Jul-14 06:00N 48°25' W 123°23'0 0.0
2019-Jul-14 05:30N 48°25' W 123°23'0 0.0
2019-Jul-14 05:00N 48°25' W 123°23'0 0.0
2019-Jul-14 04:30N 48°25' W 123°23'0 0.0
2019-Jul-14 04:00N 48°25' W 123°23'0 0.0
2019-Jul-14 03:30N 48°25' W 123°23'0 0.0
2019-Jul-14 03:00N 48°25' W 123°23'0 0.0
2019-Jul-14 02:30N 48°25' W 123°23'0 0.0
2019-Jul-14 02:00N 48°25' W 123°23'0 0.0
2019-Jul-14 01:30N 48°25' W 123°23'0 0.0
2019-Jul-14 01:00N 48°25' W 123°23'0 0.7
2019-Jul-14 00:31N 48°25' W 123°24'4 8.4
2019-Jul-14 00:01N 48°21' W 123°24'917.3
2019-Jul-13 23:30N 48°14' W 123°32'1223.1
2019-Jul-13 23:00N 48°14' W 123°49'1122.4
2019-Jul-13 22:30N 48°17' W 124°05'1121.6
2019-Jul-13 22:00N 48°22' W 124°20'1123.0
2019-Jul-13 21:30N 48°26' W 124°36'1123.0
2019-Jul-13 21:01N 48°28' W 124°53'1122.6
2019-Jul-13 20:31N 48°29' W 125°10'1122.2
2019-Jul-13 20:00N 48°36' W 125°23'1122.5
2019-Jul-13 19:31N 48°43' W 125°36'1122.7
2019-Jul-13 19:00N 48°50' W 125°50'2143.9
2019-Jul-13 19:00N 48°48' W 125°48'1327.6 200 / 101017.010.8 16.615.517.8
2019-Jul-13 18:30N 48°57' W 126°02'1122.0
2019-Jul-13 18:00N 49°04' W 126°15'5303.7
2019-Jul-13 18:00N 49°00' W 126°12'1632.5 150 / 101017.010.8 16.115.317.8
2019-Jul-13 17:30N 49°12' W 126°28'1122.2
2019-Jul-13 17:00N 49°19' W 126°41'1121.9
2019-Jul-13 16:30N 49°26' W 126°55'5120.5
2019-Jul-13 14:00N 50°00' W 127°54'2525.5 120 / 121017.010.8 14.914.317.8
2019-Jul-13 13:01N 50°15' W 128°25'221.4
2019-Jul-13 12:55N 50°17' W 128°27'1021.8
2019-Jul-13 12:27N 50°24' W 128°38'1022.3
2019-Jul-13 12:01N 50°31' W 128°49'1122.3
2019-Jul-13 11:31N 50°39' W 129°01'1121.4
2019-Jul-13 11:00N 50°47' W 129°12'5314.2
2019-Jul-13 11:00N 50°42' W 129°12'1632.5 180 / 121015.010.8 14.914.317.8
2019-Jul-13 10:31N 50°57' W 129°20'1122.1
2019-Jul-13 10:01N 51°07' W 129°26'2106.7
2019-Jul-13 10:00N 51°06' W 129°24'1326.4 180 / 121015.010.8 14.914.317.8
2019-Jul-13 09:31N 51°18' W 129°32'1121.9
2019-Jul-13 09:00N 51°28' W 129°38'4258.0
2019-Jul-13 09:00N 51°24' W 129°36'1531.5 140 / 121015.010.8 14.914.317.8
2019-Jul-13 08:31N 51°38' W 129°44'1122.3
2019-Jul-13 08:00N 51°49' W 129°51'1122.1
2019-Jul-13 07:30N 51°59' W 129°56'1122.2
2019-Jul-13 07:00N 52°10' W 130°03'4308.2
2019-Jul-13 07:00N 52°06' W 130°00'1629.8 140 / 121016.510.8 14.914.317.8
2019-Jul-13 06:27N 52°21' W 130°10'3 7.3
2019-Jul-13 06:00N 52°24' W 130°12'4422.2 140 / 121016.210.8 14.913.817.8
2019-Jul-13 04:00N 53°06' W 130°36'6495.3 180 / 151016.210.8 14.913.817.8
2019-Jul-13 03:59N 53°11' W 130°40'1021.5
2019-Jul-13 03:30N 53°21' W 130°43'1121.5
2019-Jul-13 03:00N 53°32' W 130°47'1121.5
2019-Jul-13 02:30N 53°42' W 130°52'1121.9
2019-Jul-13 02:00N 53°53' W 130°56'5314.8
2019-Jul-13 02:00N 53°48' W 130°54'1632.8 020 / 41017.010.8 15.914.317.8
2019-Jul-13 01:31N 54°03' W 130°60'1122.2
2019-Jul-13 01:00N 54°14' W 131°04'1121.7
2019-Jul-13 00:30N 54°25' W 131°09'1020.9
2019-Jul-13 00:00N 54°35' W 131°16'1121.4
2019-Jul-12 23:29N 54°45' W 131°11'1122.1
2019-Jul-12 23:00N 54°56' W 131°09'1121.7
2019-Jul-12 22:30N 55°07' W 131°10'42 4.0
2019-Jul-12 12:00N 55°30' W 132°12'1413.8 150 / 141018.010.8 14.213.917.8
2019-Jul-12 11:00N 55°42' W 132°24'1919.2 190 / 101018.010.8 14.113.817.8
2019-Jul-12 10:00N 56°00' W 132°36'1615.6 130 / 61018.010.8 14.513.917.8
2019-Jul-12 09:00N 56°12' W 132°54'2713.7 190 / 121018.010.8 14.713.918.2
2019-Jul-12 07:00N 56°18' W 133°42'3014.8 190 / 121018.010.8 12.111.218.2
2019-Jul-12 05:00N 56°00' W 134°24'96 5.6 200 / 101018.010.8 13.312.418.2
2019-Jul-11 12:00N 57°12' W 136°18'1515.4 270 / 121012.010.8 14.213.218.2
2019-Jul-11 11:00N 57°24' W 136°36'1515.4 270 / 121012.010.8 14.213.218.2
2019-Jul-11 10:00N 57°36' W 136°54'1817.6 270 / 121012.010.8 14.213.218.2
2019-Jul-11 09:00N 57°48' W 137°18'3718.7 270 / 121012.010.8 14.213.218.2
2019-Jul-11 07:00N 58°18' W 138°00'44 3.1 340 / 41013.510.8 15.013.216.3
2019-Jul-10 17:00N 58°54' W 138°48'5217.3 340 / 131013.0 5.4 13.512.716.3
2019-Jul-10 14:00N 58°18' W 137°36'4114.5 240 / 201013.0 5.4 14.013.216.3
2019-Jul-10 11:09N 58°18' W 136°18'317.2
2019-Jul-10 11:00N 58°19' W 136°13'1142.1
2019-Jul-10 11:00N 58°18' W 136°12'715.1 300 / 171012.0 0.3 14.112.116.3
2019-Jul-10 10:30N 58°19' W 135°58'816.4
2019-Jul-10 10:00N 58°18' W 135°43'7418.8
2019-Jul-10 10:00N 58°12' W 135°36'5 9.7 300 / 171012.010.8 14.112.116.3
2019-Jul-10 09:30N 58°15' W 135°28'1116.4
2019-Jul-10 08:52N 58°11' W 135°09'127 6.1
2019-Jul-09 12:00N 56°06' W 134°24'1818.0 050 / 71013.0 5.4 12.111.816.5
2019-Jul-09 11:00N 55°48' W 134°24'3718.7 100 / 141013.010.8 12.312.017.7
2019-Jul-09 09:00N 55°12' W 134°06'2525.0 130 / 111013.010.8 12.511.717.7
2019-Jul-09 08:00N 54°48' W 133°54'5718.9 150 / 111013.010.8 12.511.717.7
2019-Jul-09 05:00N 53°54' W 133°24'1919.3 140 / 151014.010.8 13.111.218.2
2019-Jul-09 04:00N 53°36' W 133°12'5618.7 140 / 121014.010.8 13.111.218.2
2019-Jul-09 01:00N 52°48' W 132°24'6718.4 180 / 81015.010.8 14.512.518.2
2019-Jul-08 21:21N 51°56' W 131°16'921.9
2019-Jul-08 20:57N 51°49' W 131°06'920.6
2019-Jul-08 20:30N 51°43' W 130°55'3724.3
2019-Jul-08 19:00N 51°18' W 130°12'813.2 240 / 101014.010.8 12.811.518.2
2019-Jul-08 18:25N 51°13' W 130°03'921.0
2019-Jul-08 18:00N 51°06' W 129°54'1021.7 240 / 101014.010.8 12.811.518.2
2019-Jul-08 17:33N 51°01' W 129°41'120.9
2019-Jul-08 17:30N 50°60' W 129°40'1021.4
2019-Jul-08 17:00N 50°53' W 129°28'1121.2
2019-Jul-08 16:30N 50°45' W 129°16'1121.1
2019-Jul-08 15:59N 50°38' W 129°03'1021.0
2019-Jul-08 15:30N 50°31' W 128°51'1121.3
2019-Jul-08 15:00N 50°24' W 128°39'1121.4
2019-Jul-08 14:30N 50°17' W 128°27'1121.6
2019-Jul-08 14:00N 50°09' W 128°14'1021.2
2019-Jul-08 13:30N 50°02' W 128°02'3925.5
2019-Jul-08 12:00N 49°36' W 127°18'2019.7 010 / 71014.010.8 14.613.818.0
2019-Jul-08 11:00N 49°24' W 126°54'1316.1 010 / 71014.010.8 14.613.818.0
2019-Jul-08 10:09N 49°17' W 126°37'321.4
2019-Jul-08 10:00N 49°15' W 126°33'3257.5
2019-Jul-08 10:00N 49°12' W 126°30'815.8 010 / 71014.010.8 14.613.818.0
2019-Jul-08 09:31N 49°09' W 126°19'1021.0
2019-Jul-08 09:01N 49°03' W 126°06'5293.8
2019-Jul-08 09:00N 49°00' W 126°00'611.6 180 / 31015.010.8 13.613.118.1
2019-Jul-08 08:31N 48°57' W 125°53'1121.3
2019-Jul-08 08:01N 48°51' W 125°40'4217.4
2019-Jul-08 08:00N 48°48' W 125°36'715.0 180 / 31015.010.8 13.613.118.1
2019-Jul-08 07:31N 48°45' W 125°26'1121.4
2019-Jul-08 07:01N 48°39' W 125°12'1121.5
2019-Jul-08 06:31N 48°35' W 124°57'1121.9
2019-Jul-08 06:01N 48°30' W 124°42'4253.6
2019-Jul-08 06:00N 48°30' W 124°36'714.0 320 / 61017.0 12.911.316.9
2019-Jul-08 05:31N 48°27' W 124°27'1020.7
2019-Jul-08 05:00N 48°22' W 124°13'1020.6
2019-Jul-08 04:31N 48°18' W 123°59'1020.5
2019-Jul-08 04:00N 48°17' W 123°43'918.9
2019-Jul-08 03:30N 48°15' W 123°30'815.9
2019-Jul-08 03:00N 48°09' W 123°21'815.9
2019-Jul-08 02:29N 48°12' W 123°10'1019.6
2019-Jul-08 02:00N 48°12' W 122°55'1117.3
2019-Jul-08 01:23N 48°08' W 122°41'718.3
2019-Jul-08 01:00N 48°01' W 122°37'1019.6
2019-Jul-08 00:30N 47°53' W 122°28'1019.7
2019-Jul-08 00:00N 47°44' W 122°26'713.3
2019-Jul-07 23:30N 47°37' W 122°24'1 1.4
2019-Jul-07 23:00N 47°38' W 122°23'0 0.0
2019-Jul-07 22:30N 47°38' W 122°23'0 0.0
2019-Jul-07 22:00N 47°38' W 122°23'0 0.0
2019-Jul-07 21:30N 47°38' W 122°23'0 0.0
2019-Jul-07 21:00N 47°38' W 122°23'0 0.0
2019-Jul-07 20:27N 47°38' W 122°23'0 0.0
2019-Jul-07 20:00N 47°38' W 122°23'0 0.0
2019-Jul-07 19:30N 47°38' W 122°23'0 0.0
2019-Jul-07 19:00N 47°38' W 122°23'0 0.0
2019-Jul-07 18:30N 47°38' W 122°23'0 0.0
2019-Jul-07 18:00N 47°38' W 122°23'0 0.0
2019-Jul-07 17:30N 47°38' W 122°23'0 0.0
2019-Jul-07 17:00N 47°38' W 122°23'0 0.0
2019-Jul-07 16:30N 47°38' W 122°23'0 0.0
2019-Jul-07 16:00N 47°38' W 122°23'0 0.0
2019-Jul-07 15:30N 47°38' W 122°23'0 0.0
2019-Jul-07 15:00N 47°38' W 122°23'0 0.0
2019-Jul-07 14:30N 47°38' W 122°23'0 0.0
2019-Jul-07 14:00N 47°38' W 122°23'0 0.0
2019-Jul-07 13:30N 47°38' W 122°23'0 0.7
2019-Jul-07 13:00N 47°37' W 122°23'3 6.0
2019-Jul-07 12:30N 47°39' W 122°27'611.4
2019-Jul-07 12:00N 47°44' W 122°27'612.4
2019-Jul-07 11:31N 47°50' W 122°28'612.4
2019-Jul-07 11:01N 47°56' W 122°32'2146.6
2019-Jul-07 11:00N 47°54' W 122°30'917.9 060 / 51016.010.8 13.912.316.9
2019-Jul-07 10:30N 48°01' W 122°38'510.3
2019-Jul-07 10:00N 48°06' W 122°36'558.9 270 / 171016.010.8 13.912.617.6
2019-Jul-07 09:55N 48°08' W 122°43'1112.9
2019-Jul-07 09:05N 48°11' W 122°58'114.1
2019-Jul-07 08:59N 48°11' W 122°60'713.5
2019-Jul-07 08:30N 48°11' W 123°10'713.8
2019-Jul-07 08:00N 48°10' W 123°20'611.9
2019-Jul-07 07:30N 48°12' W 123°28'815.6
2019-Jul-07 07:00N 48°20' W 123°27'510.7
2019-Jul-07 06:30N 48°25' W 123°24'1 1.2
2019-Jul-07 05:59N 48°25' W 123°23'0 0.0
2019-Jul-07 05:29N 48°25' W 123°23'0 0.0
2019-Jul-07 04:59N 48°25' W 123°23'0 0.0
2019-Jul-07 04:29N 48°25' W 123°23'0 0.0
2019-Jul-07 03:59N 48°25' W 123°23'0 0.0
2019-Jul-07 03:29N 48°25' W 123°23'0 0.0
2019-Jul-07 02:59N 48°25' W 123°23'0 0.0
2019-Jul-07 01:59N 48°25' W 123°23'0 0.0
2019-Jul-07 01:29N 48°25' W 123°23'0 0.0
2019-Jul-07 00:59N 48°25' W 123°23'0 0.1
2019-Jul-07 00:31N 48°25' W 123°23'3 5.7
2019-Jul-07 00:01N 48°22' W 123°24'815.5
2019-Jul-06 23:30N 48°15' W 123°28'1019.8
2019-Jul-06 23:00N 48°14' W 123°43'1019.8
2019-Jul-06 22:30N 48°15' W 123°58'1121.2
2019-Jul-06 22:00N 48°19' W 124°12'4274.4
2019-Jul-06 22:00N 48°18' W 124°06'1531.3 330 / 191020.010.8 13.312.817.6
2019-Jul-06 21:30N 48°24' W 124°27'1121.6
2019-Jul-06 21:01N 48°28' W 124°42'1121.7
2019-Jul-06 20:30N 48°28' W 124°59'1021.1
2019-Jul-06 20:00N 48°31' W 125°14'1020.8
2019-Jul-06 19:30N 48°37' W 125°26'1121.8
2019-Jul-06 19:01N 48°44' W 125°39'1121.3
2019-Jul-06 18:31N 48°51' W 125°51'1121.4
2019-Jul-06 18:01N 48°58' W 126°03'1121.8
2019-Jul-06 17:31N 49°05' W 126°16'1121.9
2019-Jul-06 17:00N 49°12' W 126°29'1121.9
2019-Jul-06 16:31N 49°19' W 126°42'918.1
2019-Jul-06 16:00N 49°24' W 126°54'4623.0 240 / 101020.010.8 15.014.517.6
2019-Jul-06 14:00N 49°54' W 127°48'3323.2 260 / 51021.010.8 13.813.317.6
2019-Jul-06 12:34N 50°16' W 128°27'222.4
2019-Jul-06 12:28N 50°18' W 128°29'1022.2
2019-Jul-06 12:00N 50°25' W 128°40'1122.3
2019-Jul-06 11:30N 50°33' W 128°52'1122.6
2019-Jul-06 11:00N 50°42' W 129°04'6371.7
2019-Jul-06 11:00N 50°36' W 129°00'1735.6 280 / 241017.0 0.3 12.312.017.6
2019-Jul-06 10:30N 50°50' W 129°15'1122.3
2019-Jul-06 10:00N 51°01' W 129°21'2127.8
2019-Jul-06 10:00N 51°00' W 129°18'1326.4 280 / 241017.0 0.0 12.712.218.0
2019-Jul-06 09:30N 51°11' W 129°27'1122.6
2019-Jul-06 09:00N 51°22' W 129°34'1122.3
2019-Jul-06 08:30N 51°32' W 129°40'1021.0
2019-Jul-06 08:01N 51°42' W 129°46'1121.6
2019-Jul-06 07:31N 51°52' W 129°52'1122.2
2019-Jul-06 07:01N 52°03' W 129°59'4225.6
2019-Jul-06 07:00N 52°00' W 129°54'1530.3 290 / 241018.010.8 16.313.217.5
2019-Jul-06 06:31N 52°13' W 130°05'1122.3
2019-Jul-06 06:00N 52°23' W 130°12'1122.2
2019-Jul-06 05:30N 52°34' W 130°18'1122.4
2019-Jul-06 05:01N 52°44' W 130°24'1122.8
2019-Jul-06 04:30N 52°55' W 130°31'1422.8
2019-Jul-06 03:54N 53°08' W 130°39'923.1
2019-Jul-06 03:30N 53°17' W 130°42'1123.1
2019-Jul-06 03:00N 53°28' W 130°46'1223.3
2019-Jul-06 02:31N 53°40' W 130°50'917.0
2019-Jul-06 02:00N 53°48' W 130°54'1429.2 310 / 301019.010.8 15.312.217.5
2019-Jul-06 01:31N 54°02' W 130°59'1122.5
2019-Jul-06 01:01N 54°13' W 131°03'1122.0
2019-Jul-06 00:30N 54°23' W 131°08'1122.2
2019-Jul-06 00:01N 54°34' W 131°15'1122.0
2019-Jul-05 23:30N 54°45' W 131°12'1121.8
2019-Jul-05 23:00N 54°55' W 131°09'7451.9
2019-Jul-05 23:00N 54°48' W 131°06'   250 / 101020.010.8 25.7 8.717.5
Track history (hours):
 
Tides and Currents Weather Stations Pressure Air Temp Water Temp Dewpoint Dewpoint Depression Visibility Wind Speed Wind Dir Waves Ship Positions

Oosterdam

Operator: Holland America Line

Last reported at 2019-Jul-15 18:50 UTC. Time now 2019-Jul-16 02:02 UTC.
Position N 51°23' W 130°21'.

MMSI: 245417000.

Date/timePositionNaut miles runAvg speedWind from/ knotsBaromVisibWave heightAir tempDewpointWater temp
2019-Jul-15 18:50N 51°23' W 130°21'721.4
2019-Jul-15 18:30N 51°18' W 130°12'1021.2
2019-Jul-15 18:00N 51°11' W 129°60'6707.5
2019-Jul-15 18:00N 51°06' W 129°54'5 9.4 070 / 121017.010.8 15.214.218.9
2019-Jul-15 17:30N 51°04' W 129°48'1121.5
2019-Jul-15 17:00N 50°57' W 129°35'1121.5
2019-Jul-15 16:30N 50°49' W 129°22'1121.1
2019-Jul-15 16:00N 50°42' W 129°10'1019.5
2019-Jul-15 15:30N 50°36' W 128°59'1121.1
2019-Jul-15 15:00N 50°28' W 128°47'1121.5
2019-Jul-15 14:30N 50°21' W 128°34'1121.7
2019-Jul-15 13:59N 50°13' W 128°21'1121.8
2019-Jul-15 13:30N 50°06' W 128°09'5822.9
2019-Jul-15 11:00N 49°30' W 127°00'1818.2 320 / 101017.010.8 16.015.218.0
2019-Jul-15 10:00N 49°18' W 126°40'2292.3
2019-Jul-15 10:00N 49°18' W 126°36'917.7 320 / 101017.010.8 16.015.218.0
2019-Jul-15 09:30N 49°12' W 126°27'1121.3
2019-Jul-15 09:01N 49°06' W 126°13'442624.0
2019-Jul-15 09:00N 49°00' W 125°06'3572.8 320 / 121017.010.8 16.015.218.0
2019-Jul-15 08:31N 49°00' W 125°60'1121.0
2019-Jul-15 08:01N 48°54' W 125°47'7406.3
2019-Jul-15 08:00N 48°48' W 125°42'611.8 320 / 121017.010.8 16.015.218.0
2019-Jul-15 07:31N 48°48' W 125°33'1121.5
2019-Jul-15 07:01N 48°43' W 125°20'1121.5
2019-Jul-15 06:30N 48°37' W 125°05'1121.0
2019-Jul-15 06:01N 48°33' W 124°51'1121.5
2019-Jul-15 05:31N 48°29' W 124°36'1121.5
2019-Jul-15 05:00N 48°24' W 124°21'1121.5
2019-Jul-15 04:30N 48°20' W 124°06'1121.2
2019-Jul-15 04:00N 48°17' W 123°51'1121.6
2019-Jul-15 03:30N 48°15' W 123°35'918.0
2019-Jul-15 03:00N 48°11' W 123°23'5 9.0
2019-Jul-15 02:30N 48°10' W 123°17'1020.1
2019-Jul-15 02:00N 48°12' W 123°02'1020.5
2019-Jul-15 01:30N 48°11' W 122°47'1019.4
2019-Jul-15 01:00N 48°03' W 122°38'1020.1
2019-Jul-15 00:31N 47°55' W 122°30'1121.1
2019-Jul-15 00:01N 47°45' W 122°26'815.2
2019-Jul-14 23:30N 47°38' W 122°25'1 2.6
2019-Jul-14 23:00N 47°38' W 122°23'0 0.0
2019-Jul-14 22:30N 47°38' W 122°23'0 0.0
2019-Jul-14 22:00N 47°38' W 122°23'0 0.0
2019-Jul-14 21:30N 47°38' W 122°23'0 0.0
2019-Jul-14 21:00N 47°38' W 122°23'0 0.0
2019-Jul-14 20:30N 47°38' W 122°23'0 0.0
2019-Jul-14 20:00N 47°38' W 122°23'0 0.0
2019-Jul-14 19:30N 47°38' W 122°23'0 0.0
2019-Jul-14 18:57N 47°38' W 122°23'0 0.0
2019-Jul-14 18:30N 47°38' W 122°23'0 0.0
2019-Jul-14 18:00N 47°38' W 122°23'0 0.0
2019-Jul-14 17:30N 47°38' W 122°23'0 0.0
2019-Jul-14 17:00N 47°38' W 122°23'0 0.0
2019-Jul-14 16:30N 47°38' W 122°23'0 0.0
2019-Jul-14 16:00N 47°38' W 122°23'0 0.0
2019-Jul-14 15:30N 47°38' W 122°23'0 0.0
2019-Jul-14 14:57N 47°38' W 122°23'0 0.0
2019-Jul-14 14:30N 47°38' W 122°23'0 0.0
2019-Jul-14 14:00N 47°38' W 122°23'0 0.0
2019-Jul-14 13:27N 47°38' W 122°23'0 0.2
2019-Jul-14 13:00N 47°38' W 122°23'3 5.8
2019-Jul-14 12:30N 47°38' W 122°27'611.7
2019-Jul-14 12:00N 47°44' W 122°27'612.1
2019-Jul-14 11:30N 47°50' W 122°28'612.1
2019-Jul-14 11:00N 47°56' W 122°31'2144.3
2019-Jul-14 11:00N 47°54' W 122°30'816.3 290 / 31016.010.8 14.713.416.7
2019-Jul-14 10:29N 48°00' W 122°38'611.6
2019-Jul-14 10:00N 48°06' W 122°36'527.9 270 / 81015.010.8 14.513.217.3
2019-Jul-14 09:50N 48°08' W 122°42'412.5
2019-Jul-14 09:29N 48°10' W 122°47'613.1
2019-Jul-14 09:00N 48°11' W 122°57'6704.1
2019-Jul-14 09:00N 48°06' W 122°54'1122.9 250 / 151015.010.8 13.111.816.7
2019-Jul-14 08:30N 48°12' W 123°08'815.6
2019-Jul-14 08:00N 48°10' W 123°20'712.0
2019-Jul-14 07:28N 48°13' W 123°29'715.0
2019-Jul-14 07:01N 48°19' W 123°27'611.1
2019-Jul-14 06:30N 48°25' W 123°24'1 1.2
2019-Jul-14 06:00N 48°25' W 123°23'0 0.0
2019-Jul-14 05:30N 48°25' W 123°23'0 0.0
2019-Jul-14 05:00N 48°25' W 123°23'0 0.0
2019-Jul-14 04:30N 48°25' W 123°23'0 0.0
2019-Jul-14 04:00N 48°25' W 123°23'0 0.0
2019-Jul-14 03:30N 48°25' W 123°23'0 0.0
2019-Jul-14 03:00N 48°25' W 123°23'0 0.0
2019-Jul-14 02:30N 48°25' W 123°23'0 0.0
2019-Jul-14 02:00N 48°25' W 123°23'0 0.0
2019-Jul-14 01:30N 48°25' W 123°23'0 0.0
2019-Jul-14 01:00N 48°25' W 123°23'0 0.7
2019-Jul-14 00:31N 48°25' W 123°24'4 8.4
2019-Jul-14 00:01N 48°21' W 123°24'917.3
2019-Jul-13 23:30N 48°14' W 123°32'1223.1
2019-Jul-13 23:00N 48°14' W 123°49'1122.4
2019-Jul-13 22:30N 48°17' W 124°05'1121.6
2019-Jul-13 22:00N 48°22' W 124°20'1123.0
2019-Jul-13 21:30N 48°26' W 124°36'1123.0
2019-Jul-13 21:01N 48°28' W 124°53'1122.6
2019-Jul-13 20:31N 48°29' W 125°10'1122.2
2019-Jul-13 20:00N 48°36' W 125°23'1122.5
2019-Jul-13 19:31N 48°43' W 125°36'1122.7
2019-Jul-13 19:00N 48°50' W 125°50'2143.9
2019-Jul-13 19:00N 48°48' W 125°48'1327.6 200 / 101017.010.8 16.615.517.8
2019-Jul-13 18:30N 48°57' W 126°02'1122.0
2019-Jul-13 18:00N 49°04' W 126°15'5303.7
2019-Jul-13 18:00N 49°00' W 126°12'1632.5 150 / 101017.010.8 16.115.317.8
2019-Jul-13 17:30N 49°12' W 126°28'1122.2
2019-Jul-13 17:00N 49°19' W 126°41'1121.9
2019-Jul-13 16:30N 49°26' W 126°55'5120.5
2019-Jul-13 14:00N 50°00' W 127°54'2525.5 120 / 121017.010.8 14.914.317.8
2019-Jul-13 13:01N 50°15' W 128°25'221.4
2019-Jul-13 12:55N 50°17' W 128°27'1021.8
2019-Jul-13 12:27N 50°24' W 128°38'1022.3
2019-Jul-13 12:01N 50°31' W 128°49'1122.3
2019-Jul-13 11:31N 50°39' W 129°01'1121.4
2019-Jul-13 11:00N 50°47' W 129°12'5314.2
2019-Jul-13 11:00N 50°42' W 129°12'1632.5 180 / 121015.010.8 14.914.317.8
2019-Jul-13 10:31N 50°57' W 129°20'1122.1
2019-Jul-13 10:01N 51°07' W 129°26'2106.7
2019-Jul-13 10:00N 51°06' W 129°24'1326.4 180 / 121015.010.8 14.914.317.8
2019-Jul-13 09:31N 51°18' W 129°32'1121.9
2019-Jul-13 09:00N 51°28' W 129°38'4258.0
2019-Jul-13 09:00N 51°24' W 129°36'1531.5 140 / 121015.010.8 14.914.317.8
2019-Jul-13 08:31N 51°38' W 129°44'1122.3
2019-Jul-13 08:00N 51°49' W 129°51'1122.1
2019-Jul-13 07:30N 51°59' W 129°56'1122.2
2019-Jul-13 07:00N 52°10' W 130°03'4308.2
2019-Jul-13 07:00N 52°06' W 130°00'1629.8 140 / 121016.510.8 14.914.317.8
2019-Jul-13 06:27N 52°21' W 130°10'3 7.3
2019-Jul-13 06:00N 52°24' W 130°12'4422.2 140 / 121016.210.8 14.913.817.8
2019-Jul-13 04:00N 53°06' W 130°36'6495.3 180 / 151016.210.8 14.913.817.8
2019-Jul-13 03:59N 53°11' W 130°40'1021.5
2019-Jul-13 03:30N 53°21' W 130°43'1121.5
2019-Jul-13 03:00N 53°32' W 130°47'1121.5
2019-Jul-13 02:30N 53°42' W 130°52'1121.9
2019-Jul-13 02:00N 53°53' W 130°56'5314.8
2019-Jul-13 02:00N 53°48' W 130°54'1632.8 020 / 41017.010.8 15.914.317.8
2019-Jul-13 01:31N 54°03' W 130°60'1122.2
2019-Jul-13 01:00N 54°14' W 131°04'1121.7
2019-Jul-13 00:30N 54°25' W 131°09'1020.9
2019-Jul-13 00:00N 54°35' W 131°16'1121.4
2019-Jul-12 23:29N 54°45' W 131°11'1122.1
2019-Jul-12 23:00N 54°56' W 131°09'1121.7
2019-Jul-12 22:30N 55°07' W 131°10'42 4.0
2019-Jul-12 12:00N 55°30' W 132°12'1413.8 150 / 141018.010.8 14.213.917.8
2019-Jul-12 11:00N 55°42' W 132°24'1919.2 190 / 101018.010.8 14.113.817.8
2019-Jul-12 10:00N 56°00' W 132°36'1615.6 130 / 61018.010.8 14.513.917.8
2019-Jul-12 09:00N 56°12' W 132°54'2713.7 190 / 121018.010.8 14.713.918.2
2019-Jul-12 07:00N 56°18' W 133°42'3014.8 190 / 121018.010.8 12.111.218.2
2019-Jul-12 05:00N 56°00' W 134°24'96 5.6 200 / 101018.010.8 13.312.418.2
2019-Jul-11 12:00N 57°12' W 136°18'1515.4 270 / 121012.010.8 14.213.218.2
2019-Jul-11 11:00N 57°24' W 136°36'1515.4 270 / 121012.010.8 14.213.218.2
2019-Jul-11 10:00N 57°36' W 136°54'1817.6 270 / 121012.010.8 14.213.218.2
2019-Jul-11 09:00N 57°48' W 137°18'3718.7 270 / 121012.010.8 14.213.218.2
2019-Jul-11 07:00N 58°18' W 138°00'44 3.1 340 / 41013.510.8 15.013.216.3
2019-Jul-10 17:00N 58°54' W 138°48'5217.3 340 / 131013.0 5.4 13.512.716.3
2019-Jul-10 14:00N 58°18' W 137°36'4114.5 240 / 201013.0 5.4 14.013.216.3
2019-Jul-10 11:09N 58°18' W 136°18'317.2
2019-Jul-10 11:00N 58°19' W 136°13'1142.1
2019-Jul-10 11:00N 58°18' W 136°12'715.1 300 / 171012.0 0.3 14.112.116.3
2019-Jul-10 10:30N 58°19' W 135°58'816.4
2019-Jul-10 10:00N 58°18' W 135°43'7418.8
2019-Jul-10 10:00N 58°12' W 135°36'5 9.7 300 / 171012.010.8 14.112.116.3
2019-Jul-10 09:30N 58°15' W 135°28'1116.4
2019-Jul-10 08:52N 58°11' W 135°09'127 6.1
2019-Jul-09 12:00N 56°06' W 134°24'1818.0 050 / 71013.0 5.4 12.111.816.5
2019-Jul-09 11:00N 55°48' W 134°24'3718.7 100 / 141013.010.8 12.312.017.7
2019-Jul-09 09:00N 55°12' W 134°06'2525.0 130 / 111013.010.8 12.511.717.7
2019-Jul-09 08:00N 54°48' W 133°54'5718.9 150 / 111013.010.8 12.511.717.7
2019-Jul-09 05:00N 53°54' W 133°24'1919.3 140 / 151014.010.8 13.111.218.2
2019-Jul-09 04:00N 53°36' W 133°12'5618.7 140 / 121014.010.8 13.111.218.2
2019-Jul-09 01:00N 52°48' W 132°24'6718.4 180 / 81015.010.8 14.512.518.2
2019-Jul-08 21:21N 51°56' W 131°16'921.9
2019-Jul-08 20:57N 51°49' W 131°06'920.6
2019-Jul-08 20:30N 51°43' W 130°55'3724.3
2019-Jul-08 19:00N 51°18' W 130°12'813.2 240 / 101014.010.8 12.811.518.2
2019-Jul-08 18:25N 51°13' W 130°03'921.0
2019-Jul-08 18:00N 51°06' W 129°54'1021.7 240 / 101014.010.8 12.811.518.2
2019-Jul-08 17:33N 51°01' W 129°41'120.9
2019-Jul-08 17:30N 50°60' W 129°40'1021.4
2019-Jul-08 17:00N 50°53' W 129°28'1121.2
2019-Jul-08 16:30N 50°45' W 129°16'1121.1
2019-Jul-08 15:59N 50°38' W 129°03'1021.0
2019-Jul-08 15:30N 50°31' W 128°51'1121.3
2019-Jul-08 15:00N 50°24' W 128°39'1121.4
2019-Jul-08 14:30N 50°17' W 128°27'1121.6
2019-Jul-08 14:00N 50°09' W 128°14'1021.2
2019-Jul-08 13:30N 50°02' W 128°02'3925.5
2019-Jul-08 12:00N 49°36' W 127°18'2019.7 010 / 71014.010.8 14.613.818.0
2019-Jul-08 11:00N 49°24' W 126°54'1316.1 010 / 71014.010.8 14.613.818.0
2019-Jul-08 10:09N 49°17' W 126°37'321.4
2019-Jul-08 10:00N 49°15' W 126°33'3257.5
2019-Jul-08 10:00N 49°12' W 126°30'815.8 010 / 71014.010.8 14.613.818.0
2019-Jul-08 09:31N 49°09' W 126°19'1021.0
2019-Jul-08 09:01N 49°03' W 126°06'5293.8
2019-Jul-08 09:00N 49°00' W 126°00'611.6 180 / 31015.010.8 13.613.118.1
2019-Jul-08 08:31N 48°57' W 125°53'1121.3
2019-Jul-08 08:01N 48°51' W 125°40'4217.4
2019-Jul-08 08:00N 48°48' W 125°36'715.0 180 / 31015.010.8 13.613.118.1
2019-Jul-08 07:31N 48°45' W 125°26'1121.4
2019-Jul-08 07:01N 48°39' W 125°12'1121.5
2019-Jul-08 06:31N 48°35' W 124°57'1121.9
2019-Jul-08 06:01N 48°30' W 124°42'4253.6
2019-Jul-08 06:00N 48°30' W 124°36'714.0 320 / 61017.0 12.911.316.9
2019-Jul-08 05:31N 48°27' W 124°27'1020.7
2019-Jul-08 05:00N 48°22' W 124°13'1020.6
2019-Jul-08 04:31N 48°18' W 123°59'1020.5
2019-Jul-08 04:00N 48°17' W 123°43'918.9
2019-Jul-08 03:30N 48°15' W 123°30'815.9
2019-Jul-08 03:00N 48°09' W 123°21'815.9
2019-Jul-08 02:29N 48°12' W 123°10'1019.6
2019-Jul-08 02:00N 48°12' W 122°55'1117.3
2019-Jul-08 01:23N 48°08' W 122°41'718.3
2019-Jul-08 01:00N 48°01' W 122°37'1019.6
2019-Jul-08 00:30N 47°53' W 122°28'1019.7
2019-Jul-08 00:00N 47°44' W 122°26'713.3
2019-Jul-07 23:30N 47°37' W 122°24'1 1.4
2019-Jul-07 23:00N 47°38' W 122°23'0 0.0
2019-Jul-07 22:30N 47°38' W 122°23'0 0.0
2019-Jul-07 22:00N 47°38' W 122°23'0 0.0
2019-Jul-07 21:30N 47°38' W 122°23'0 0.0
2019-Jul-07 21:00N 47°38' W 122°23'0 0.0
2019-Jul-07 20:27N 47°38' W 122°23'0 0.0
2019-Jul-07 20:00N 47°38' W 122°23'0 0.0
2019-Jul-07 19:30N 47°38' W 122°23'0 0.0
2019-Jul-07 19:00N 47°38' W 122°23'0 0.0
2019-Jul-07 18:30N 47°38' W 122°23'0 0.0
2019-Jul-07 18:00N 47°38' W 122°23'0 0.0
2019-Jul-07 17:30N 47°38' W 122°23'0 0.0
2019-Jul-07 17:00N 47°38' W 122°23'0 0.0
2019-Jul-07 16:30N 47°38' W 122°23'0 0.0
2019-Jul-07 16:00N 47°38' W 122°23'0 0.0
2019-Jul-07 15:30N 47°38' W 122°23'0 0.0
2019-Jul-07 15:00N 47°38' W 122°23'0 0.0
2019-Jul-07 14:30N 47°38' W 122°23'0 0.0
2019-Jul-07 14:00N 47°38' W 122°23'0 0.0
2019-Jul-07 13:30N 47°38' W 122°23'0 0.7
2019-Jul-07 13:00N 47°37' W 122°23'3 6.0
2019-Jul-07 12:30N 47°39' W 122°27'611.4
2019-Jul-07 12:00N 47°44' W 122°27'612.4
2019-Jul-07 11:31N 47°50' W 122°28'612.4
2019-Jul-07 11:01N 47°56' W 122°32'2146.6
2019-Jul-07 11:00N 47°54' W 122°30'917.9 060 / 51016.010.8 13.912.316.9
2019-Jul-07 10:30N 48°01' W 122°38'510.3
2019-Jul-07 10:00N 48°06' W 122°36'558.9 270 / 171016.010.8 13.912.617.6
2019-Jul-07 09:55N 48°08' W 122°43'1112.9
2019-Jul-07 09:05N 48°11' W 122°58'114.1
2019-Jul-07 08:59N 48°11' W 122°60'713.5
2019-Jul-07 08:30N 48°11' W 123°10'713.8
2019-Jul-07 08:00N 48°10' W 123°20'611.9
2019-Jul-07 07:30N 48°12' W 123°28'815.6
2019-Jul-07 07:00N 48°20' W 123°27'510.7
2019-Jul-07 06:30N 48°25' W 123°24'1 1.2
2019-Jul-07 05:59N 48°25' W 123°23'0 0.0
2019-Jul-07 05:29N 48°25' W 123°23'0 0.0
2019-Jul-07 04:59N 48°25' W 123°23'0 0.0
2019-Jul-07 04:29N 48°25' W 123°23'0 0.0
2019-Jul-07 03:59N 48°25' W 123°23'0 0.0
2019-Jul-07 03:29N 48°25' W 123°23'0 0.0
2019-Jul-07 02:59N 48°25' W 123°23'0 0.0
2019-Jul-07 01:59N 48°25' W 123°23'0 0.0
2019-Jul-07 01:29N 48°25' W 123°23'0 0.0
2019-Jul-07 00:59N 48°25' W 123°23'0 0.1
2019-Jul-07 00:31N 48°25' W 123°23'3 5.7
2019-Jul-07 00:01N 48°22' W 123°24'815.5
2019-Jul-06 23:30N 48°15' W 123°28'1019.8
2019-Jul-06 23:00N 48°14' W 123°43'1019.8
2019-Jul-06 22:30N 48°15' W 123°58'1121.2
2019-Jul-06 22:00N 48°19' W 124°12'4274.4
2019-Jul-06 22:00N 48°18' W 124°06'1531.3 330 / 191020.010.8 13.312.817.6
2019-Jul-06 21:30N 48°24' W 124°27'1121.6
2019-Jul-06 21:01N 48°28' W 124°42'1121.7
2019-Jul-06 20:30N 48°28' W 124°59'1021.1
2019-Jul-06 20:00N 48°31' W 125°14'1020.8
2019-Jul-06 19:30N 48°37' W 125°26'1121.8
2019-Jul-06 19:01N 48°44' W 125°39'1121.3
2019-Jul-06 18:31N 48°51' W 125°51'1121.4
2019-Jul-06 18:01N 48°58' W 126°03'1121.8
2019-Jul-06 17:31N 49°05' W 126°16'1121.9
2019-Jul-06 17:00N 49°12' W 126°29'1121.9
2019-Jul-06 16:31N 49°19' W 126°42'918.1
2019-Jul-06 16:00N 49°24' W 126°54'4623.0 240 / 101020.010.8 15.014.517.6
2019-Jul-06 14:00N 49°54' W 127°48'3323.2 260 / 51021.010.8 13.813.317.6
2019-Jul-06 12:34N 50°16' W 128°27'222.4
2019-Jul-06 12:28N 50°18' W 128°29'1022.2
2019-Jul-06 12:00N 50°25' W 128°40'1122.3
2019-Jul-06 11:30N 50°33' W 128°52'1122.6
2019-Jul-06 11:00N 50°42' W 129°04'6371.7
2019-Jul-06 11:00N 50°36' W 129°00'1735.6 280 / 241017.0 0.3 12.312.017.6
2019-Jul-06 10:30N 50°50' W 129°15'1122.3
2019-Jul-06 10:00N 51°01' W 129°21'2127.8
2019-Jul-06 10:00N 51°00' W 129°18'1326.4 280 / 241017.0 0.0 12.712.218.0
2019-Jul-06 09:30N 51°11' W 129°27'1122.6
2019-Jul-06 09:00N 51°22' W 129°34'1122.3
2019-Jul-06 08:30N 51°32' W 129°40'1021.0
2019-Jul-06 08:01N 51°42' W 129°46'1121.6
2019-Jul-06 07:31N 51°52' W 129°52'1122.2
2019-Jul-06 07:01N 52°03' W 129°59'4225.6
2019-Jul-06 07:00N 52°00' W 129°54'1530.3 290 / 241018.010.8 16.313.217.5
2019-Jul-06 06:31N 52°13' W 130°05'1122.3
2019-Jul-06 06:00N 52°23' W 130°12'1122.2
2019-Jul-06 05:30N 52°34' W 130°18'1122.4
2019-Jul-06 05:01N 52°44' W 130°24'1122.8
2019-Jul-06 04:30N 52°55' W 130°31'1422.8
2019-Jul-06 03:54N 53°08' W 130°39'923.1
2019-Jul-06 03:30N 53°17' W 130°42'1123.1
2019-Jul-06 03:00N 53°28' W 130°46'1223.3
2019-Jul-06 02:31N 53°40' W 130°50'917.0
2019-Jul-06 02:00N 53°48' W 130°54'1429.2 310 / 301019.010.8 15.312.217.5
2019-Jul-06 01:31N 54°02' W 130°59'1122.5
2019-Jul-06 01:01N 54°13' W 131°03'1122.0
2019-Jul-06 00:30N 54°23' W 131°08'1122.2
2019-Jul-06 00:01N 54°34' W 131°15'1122.0
2019-Jul-05 23:30N 54°45' W 131°12'1121.8
2019-Jul-05 23:00N 54°55' W 131°09'7451.9
2019-Jul-05 23:00N 54°48' W 131°06'   250 / 101020.010.8 25.7 8.717.5

Dump ship's entire track history